Time;durP1;ratioP1;P1;durP2;ratioP2;P2;SDS_P1;SDS_P2;PMS_P1;PMS_P2;Temp;Humidity;BMP_temperature;BMP_pressure;BME280_temperature;BME280_humidity;BME280_pressure;Samples;Min_cycle;Max_cycle;Signal;HPM_P1;HPM_P2
2023/06/07 00:01:06;;;;;;;12.30;6.68;;;16.80;99.90;16.80;100802.00;;;;5005243;27;108841;-65
2023/06/07 00:03:34;;;;;;;6.40;5.53;;;16.70;99.90;16.80;100809.00;;;;5007231;27;93624;-64
2023/06/07 00:06:03;;;;;;;7.53;6.10;;;16.70;99.90;16.80;100813.00;;;;5005088;27;92994;-65
2023/06/07 00:08:29;;;;;;;6.85;6.18;;;16.70;99.90;16.80;100812.00;;;;5003811;27;93037;-64
2023/06/07 00:10:56;;;;;;;6.97;6.07;;;16.70;99.90;16.80;100814.00;;;;5006236;27;92127;-65
2023/06/07 00:13:22;;;;;;;6.45;5.85;;;16.70;99.90;16.70;100807.00;;;;5003311;27;116392;-65
2023/06/07 00:15:48;;;;;;;7.32;5.63;;;16.70;99.90;16.70;100807.00;;;;5004914;27;93039;-65
2023/06/07 00:18:15;;;;;;;5.70;5.20;;;16.70;99.90;16.70;100806.00;;;;4984703;27;95901;-65
2023/06/07 00:20:45;;;;;;;6.05;5.07;;;16.70;99.90;16.70;100807.00;;;;5004389;27;92762;-65
2023/06/07 00:23:14;;;;;;;7.15;5.38;;;16.50;99.90;16.70;100812.00;;;;5006615;27;94289;-65
2023/06/07 00:25:40;;;;;;;10.55;6.25;;;16.60;99.90;16.70;100816.00;;;;5003890;27;104956;-64
2023/06/07 00:28:06;;;;;;;6.22;4.68;;;16.60;99.90;16.70;100823.00;;;;5006771;27;93003;-65
2023/06/07 00:30:32;;;;;;;7.18;5.68;;;16.60;99.90;16.70;100810.00;;;;5004552;27;108894;-66
2023/06/07 00:32:57;;;;;;;7.53;5.95;;;16.60;99.90;16.70;100809.00;;;;5004264;27;122995;-66
2023/06/07 00:35:23;;;;;;;9.40;6.30;;;16.60;99.90;16.70;100809.00;;;;5006080;27;111197;-67
2023/06/07 00:37:49;;;;;;;6.85;5.35;;;16.60;99.90;16.70;100809.00;;;;5007717;27;109569;-67
2023/06/07 00:40:14;;;;;;;8.18;5.50;;;16.60;99.90;16.70;100815.00;;;;5004447;27;108517;-67
2023/06/07 00:42:40;;;;;;;7.75;6.00;;;16.60;99.90;16.70;100809.00;;;;5003822;27;128043;-66
2023/06/07 00:45:07;;;;;;;5.75;5.22;;;16.60;99.90;16.70;100810.00;;;;5007133;27;94606;-66
2023/06/07 00:47:33;;;;;;;7.82;5.63;;;16.60;99.90;16.70;100809.00;;;;5004909;27;93150;-66
2023/06/07 00:49:59;;;;;;;8.52;6.13;;;16.60;99.90;16.70;100816.00;;;;5002576;27;92905;-65
2023/06/07 00:52:25;;;;;;;7.50;6.40;;;16.60;99.90;16.70;100807.00;;;;5002847;27;92858;-65
2023/06/07 00:54:52;;;;;;;6.95;6.25;;;16.60;99.90;16.70;100812.00;;;;5003034;27;121898;-66
2023/06/07 00:57:18;;;;;;;7.05;5.43;;;16.60;99.90;16.60;100813.00;;;;5002201;27;110370;-65
2023/06/07 00:59:44;;;;;;;7.22;5.30;;;16.60;99.90;16.60;100811.00;;;;5006067;27;92400;-64
2023/06/07 01:02:09;;;;;;;6.10;4.20;;;16.50;99.90;16.60;100808.00;;;;5000179;27;122983;-66
2023/06/07 01:04:40;;;;;;;7.13;5.82;;;16.50;99.90;16.60;100799.00;;;;5002724;27;115832;-65
2023/06/07 01:07:07;;;;;;;8.20;5.82;;;16.50;99.90;16.60;100809.00;;;;4995426;27;94060;-66
2023/06/07 01:09:34;;;;;;;6.88;6.00;;;16.50;99.90;16.60;100804.00;;;;5003940;27;93139;-65
2023/06/07 01:12:03;;;;;;;7.72;6.55;;;16.50;99.90;16.50;100806.00;;;;5005947;27;92808;-64
2023/06/07 01:14:30;;;;;;;8.48;6.47;;;16.50;99.90;16.50;100799.00;;;;4987883;27;115877;-66
2023/06/07 01:16:57;;;;;;;7.38;6.47;;;16.40;99.90;16.50;100806.00;;;;5004373;27;110254;-65
2023/06/07 01:19:29;;;;;;;8.63;5.55;;;16.40;99.90;16.50;100799.00;;;;4991675;27;93042;-65
2023/06/07 01:22:04;;;;;;;6.20;5.60;;;16.40;99.90;16.40;100803.00;;;;5008679;27;93040;-65
2023/06/07 01:24:31;;;;;;;6.20;5.05;;;16.40;99.90;16.40;100792.00;;;;5010266;27;92710;-65
2023/06/07 01:26:58;;;;;;;7.97;6.45;;;16.40;99.90;16.40;100798.00;;;;4995791;27;101894;-64
2023/06/07 01:29:26;;;;;;;8.23;6.55;;;16.40;99.90;16.40;100797.00;;;;4998230;27;92816;-64
2023/06/07 01:31:57;;;;;;;24.60;6.53;;;16.30;99.90;16.40;100789.00;;;;5009307;27;94367;-65
2023/06/07 01:34:23;;;;;;;8.43;6.82;;;16.30;99.90;16.30;100790.00;;;;5009308;27;114250;-67
2023/06/07 01:36:50;;;;;;;7.05;6.35;;;16.30;99.90;16.30;100789.00;;;;5006514;27;97270;-64
2023/06/07 01:39:19;;;;;;;6.78;5.90;;;16.30;99.90;16.30;100788.00;;;;4998078;27;96991;-65
2023/06/07 01:41:46;;;;;;;8.00;6.30;;;16.30;99.90;16.30;100782.00;;;;5008788;27;123275;-65
2023/06/07 01:44:13;;;;;;;7.60;6.35;;;16.20;99.90;16.30;100786.00;;;;4993959;27;121745;-65
2023/06/07 01:46:41;;;;;;;7.28;5.50;;;16.20;99.90;16.30;100783.00;;;;4993158;27;92843;-67
2023/06/07 01:49:06;;;;;;;5.93;5.32;;;16.20;99.90;16.20;100778.00;;;;5007824;27;92514;-65
2023/06/07 01:51:32;;;;;;;6.25;5.68;;;16.20;99.90;16.20;100773.00;;;;5006260;27;122094;-65
2023/06/07 01:53:58;;;;;;;10.25;6.78;;;16.20;99.90;16.20;100769.00;;;;5006088;27;122387;-65
2023/06/07 01:56:48;;;;;;;7.30;6.13;;;16.10;99.90;16.20;100771.00;;;;4993939;27;108360;-65
2023/06/07 01:59:30;;;;;;;6.70;5.50;;;16.10;99.90;16.10;100773.00;;;;5006793;27;92895;-65
2023/06/07 02:02:13;;;;;;;8.82;5.90;;;16.10;99.90;16.10;100757.00;;;;4995182;27;114341;-65
2023/06/07 02:04:45;;;;;;;5.72;5.18;;;16.10;99.90;16.10;100772.00;;;;5006239;27;93238;-65
2023/06/07 02:07:22;;;;;;;6.70;5.90;;;16.10;99.90;16.10;100766.00;;;;4995953;27;92718;-65
2023/06/07 02:09:50;;;;;;;7.30;5.45;;;16.10;99.90;16.10;100766.00;;;;4995480;27;92920;-66
2023/06/07 02:12:17;;;;;;;5.93;4.93;;;16.00;99.90;16.10;100757.00;;;;5006904;27;94151;-65
2023/06/07 02:14:45;;;;;;;7.85;5.70;;;16.00;99.90;16.10;100765.00;;;;4994066;27;112891;-65
2023/06/07 02:17:12;;;;;;;7.53;6.00;;;16.00;99.90;16.10;100760.00;;;;4991487;27;92766;-65
2023/06/07 02:19:37;;;;;;;7.25;5.47;;;16.00;99.90;16.00;100755.00;;;;5009592;27;93056;-64
2023/06/07 02:22:06;;;;;;;6.53;5.93;;;16.00;99.90;16.00;100759.00;;;;5010571;27;122785;-65
2023/06/07 02:24:32;;;;;;;7.28;6.38;;;16.00;99.90;16.00;100751.00;;;;5006094;27;123755;-65
2023/06/07 02:26:57;;;;;;;6.95;6.25;;;16.00;99.90;16.00;100745.00;;;;5005269;27;92912;-66
2023/06/07 02:29:23;;;;;;;6.90;5.75;;;16.00;99.90;16.00;100737.00;;;;5006751;27;108902;-66
2023/06/07 02:31:49;;;;;;;7.03;5.63;;;15.90;99.90;15.90;100745.00;;;;5003545;27;116680;-66
2023/06/07 02:34:15;;;;;;;9.32;5.88;;;15.90;99.90;15.90;100746.00;;;;5003738;27;94932;-66
2023/06/07 02:36:41;;;;;;;8.80;5.95;;;15.80;99.90;15.90;100745.00;;;;5004735;27;102273;-66
2023/06/07 02:39:08;;;;;;;9.05;6.60;;;15.90;99.90;15.90;100746.00;;;;5007823;27;97478;-65
2023/06/07 02:41:34;;;;;;;7.65;6.88;;;15.80;99.90;15.90;100741.00;;;;5003768;27;94090;-66
2023/06/07 02:44:00;;;;;;;7.72;6.03;;;15.80;99.90;15.90;100751.00;;;;5003730;27;93547;-65
2023/06/07 02:46:25;;;;;;;6.53;5.70;;;15.80;99.90;15.80;100746.00;;;;5009109;27;93985;-67
2023/06/07 02:48:51;;;;;;;6.13;5.00;;;15.80;99.90;15.80;100750.00;;;;4997130;27;108859;-66
2023/06/07 02:51:17;;;;;;;8.63;6.25;;;15.80;99.90;15.80;100749.00;;;;5007339;27;123013;-66
2023/06/07 02:53:44;;;;;;;8.45;6.47;;;15.70;99.90;15.80;100744.00;;;;5006980;27;102905;-66
2023/06/07 02:56:11;;;;;;;8.25;6.18;;;15.70;99.90;15.80;100744.00;;;;5007551;27;92930;-66
2023/06/07 02:58:36;;;;;;;6.07;5.47;;;15.70;99.90;15.80;100745.00;;;;5001447;27;101151;-65
2023/06/07 03:01:07;;;;;;;8.10;6.68;;;15.70;99.90;15.70;100737.00;;;;5004032;27;99570;-65
2023/06/07 03:03:35;;;;;;;7.45;6.35;;;15.60;99.90;15.70;100746.00;;;;5005270;27;94004;-66
2023/06/07 03:06:04;;;;;;;6.60;5.47;;;15.60;99.90;15.60;100746.00;;;;5008112;27;92817;-65
2023/06/07 03:08:32;;;;;;;7.03;6.10;;;15.60;99.90;15.60;100739.00;;;;5005058;27;93282;-65
2023/06/07 03:10:58;;;;;;;7.32;6.25;;;15.60;99.90;15.60;100742.00;;;;5005495;27;112894;-65
2023/06/07 03:13:24;;;;;;;11.07;5.90;;;15.50;99.90;15.60;100745.00;;;;5004574;27;94643;-65
2023/06/07 03:15:50;;;;;;;6.50;5.28;;;15.50;99.90;15.50;100737.00;;;;5006391;27;92850;-65
2023/06/07 03:18:17;;;;;;;8.23;6.07;;;15.50;99.90;15.50;100750.00;;;;5007867;27;92921;-65
2023/06/07 03:20:43;;;;;;;8.57;5.90;;;15.50;99.90;15.50;100746.00;;;;5009053;27;93776;-65
2023/06/07 03:23:09;;;;;;;6.93;6.20;;;15.50;99.90;15.50;100752.00;;;;5009124;27;112574;-65
2023/06/07 03:25:35;;;;;;;9.38;5.85;;;15.40;99.90;15.50;100748.00;;;;5006746;27;93070;-65
2023/06/07 03:28:02;;;;;;;12.48;6.20;;;15.40;99.90;15.50;100742.00;;;;5006963;27;92116;-66
2023/06/07 03:30:28;;;;;;;7.63;6.85;;;15.40;99.90;15.40;100751.00;;;;4997174;27;92666;-65
2023/06/07 03:32:54;;;;;;;10.07;7.30;;;15.40;99.90;15.40;100748.00;;;;5008892;27;122851;-65
2023/06/07 03:35:20;;;;;;;6.80;5.68;;;15.40;99.90;15.40;100748.00;;;;5005251;27;94097;-65
2023/06/07 03:37:47;;;;;;;6.80;6.07;;;15.40;99.90;15.40;100747.00;;;;5006694;27;109162;-65
2023/06/07 03:40:13;;;;;;;7.40;5.75;;;15.40;99.90;15.40;100742.00;;;;5005148;27;93763;-65
2023/06/07 03:42:39;;;;;;;6.40;5.35;;;15.30;99.90;15.40;100746.00;;;;5003905;27;116652;-66
2023/06/07 03:45:06;;;;;;;8.55;6.70;;;15.30;99.90;15.40;100747.00;;;;5009790;27;93085;-66
2023/06/07 03:47:32;;;;;;;7.82;6.47;;;15.30;99.90;15.40;100747.00;;;;5005472;27;92898;-66
2023/06/07 03:49:58;;;;;;;6.85;5.97;;;15.30;99.90;15.40;100753.00;;;;5007019;27;113262;-65
2023/06/07 03:52:24;;;;;;;7.82;7.03;;;15.30;99.90;15.40;100739.00;;;;5008286;27;95833;-66
2023/06/07 03:54:50;;;;;;;8.60;7.75;;;15.30;99.90;15.40;100753.00;;;;5005132;27;93074;-66
2023/06/07 03:57:16;;;;;;;9.25;8.10;;;15.30;99.90;15.40;100752.00;;;;5004264;27;92931;-67
2023/06/07 03:59:41;;;;;;;11.25;8.57;;;15.30;99.90;15.40;100753.00;;;;5003535;27;124267;-67
2023/06/07 04:02:07;;;;;;;8.02;6.38;;;15.40;99.90;15.50;100757.00;;;;5003697;27;106438;-66
2023/06/07 04:04:33;;;;;;;9.25;8.27;;;15.40;99.90;15.50;100752.00;;;;4999577;27;110539;-68
2023/06/07 04:07:03;;;;;;;9.27;8.30;;;15.40;99.90;15.60;100756.00;;;;5006392;27;93761;-66
2023/06/07 04:09:29;;;;;;;9.20;8.02;;;15.50;99.90;15.70;100758.00;;;;5002686;27;93379;-68
2023/06/07 04:11:55;;;;;;;10.13;8.18;;;15.60;99.90;15.80;100767.00;;;;5002440;27;118986;-69
2023/06/07 04:14:20;;;;;;;8.80;7.32;;;15.60;99.90;15.80;100759.00;;;;5006197;27;92974;-68
2023/06/07 04:16:47;;;;;;;9.18;7.57;;;15.70;99.90;15.90;100766.00;;;;5008678;27;109008;-68
2023/06/07 04:19:12;;;;;;;9.02;7.72;;;15.80;99.90;16.00;100763.00;;;;5006806;27;114776;-67
2023/06/07 04:21:39;;;;;;;7.75;6.28;;;15.90;99.90;16.10;100771.00;;;;5006018;27;121631;-67
2023/06/07 04:24:05;;;;;;;8.40;7.03;;;15.90;99.90;16.20;100763.00;;;;5001994;27;93972;-67
2023/06/07 04:26:31;;;;;;;8.05;7.20;;;16.00;99.90;16.20;100769.00;;;;5004375;27;92956;-68
2023/06/07 04:28:57;;;;;;;8.77;7.57;;;16.10;99.90;16.30;100766.00;;;;5004412;27;94185;-67
2023/06/07 04:31:29;;;;;;;8.90;6.68;;;16.20;99.90;16.40;100762.00;;;;4999422;27;116171;-67
2023/06/07 04:34:01;;;;;;;6.97;5.88;;;16.30;99.90;16.50;100754.00;;;;5003545;27;92939;-66
2023/06/07 04:36:30;;;;;;;8.48;7.60;;;16.40;99.90;16.60;100765.00;;;;5008579;27;93052;-66
2023/06/07 04:38:56;;;;;;;7.00;6.00;;;16.50;99.90;16.70;100758.00;;;;5001262;27;92938;-67
2023/06/07 04:41:30;;;;;;;5.68;5.18;;;16.60;99.90;16.80;100762.00;;;;5005447;27;93489;-67
2023/06/07 04:44:03;;;;;;;6.13;5.03;;;16.70;99.90;17.00;100764.00;;;;5005722;27;93155;-66
2023/06/07 04:46:30;;;;;;;12.65;6.75;;;16.80;99.90;17.10;100762.00;;;;4997248;27;92942;-66
2023/06/07 04:48:56;;;;;;;6.40;4.97;;;16.90;99.90;17.20;100761.00;;;;5002702;27;94060;-66
2023/06/07 04:51:25;;;;;;;7.38;5.22;;;17.10;99.90;17.30;100758.00;;;;5002867;27;94412;-65
2023/06/07 04:53:58;;;;;;;5.82;4.95;;;17.20;99.90;17.40;100756.00;;;;5002934;27;93057;-66
2023/06/07 04:56:27;;;;;;;7.65;6.57;;;17.30;99.90;17.60;100763.00;;;;5005377;27;92919;-67
2023/06/07 04:58:54;;;;;;;5.45;4.97;;;17.40;99.90;17.70;100761.00;;;;5007074;27;92940;-65
2023/06/07 05:01:20;;;;;;;7.32;4.45;;;17.60;99.90;17.90;100763.00;;;;5006922;27;93393;-65
2023/06/07 05:03:46;;;;;;;4.68;4.28;;;17.70;99.90;18.00;100764.00;;;;5009817;27;93976;-65
2023/06/07 05:06:11;;;;;;;5.65;5.07;;;17.90;99.90;18.20;100762.00;;;;5010960;27;91909;-66
2023/06/07 05:08:37;;;;;;;4.93;4.28;;;18.00;99.90;18.30;100754.00;;;;5005247;27;108464;-66
2023/06/07 05:11:03;;;;;;;6.60;5.28;;;18.20;99.90;18.50;100757.00;;;;5003600;27;122625;-66
2023/06/07 05:13:31;;;;;;;5.43;4.55;;;18.30;99.90;18.70;100756.00;;;;5002218;27;109670;-66
2023/06/07 05:15:57;;;;;;;6.40;4.07;;;18.50;99.90;18.90;100748.00;;;;5008942;27;92816;-65
2023/06/07 05:18:23;;;;;;;4.50;3.22;;;18.70;99.90;19.00;100764.00;;;;5004594;27;92874;-65
2023/06/07 05:20:49;;;;;;;3.97;3.22;;;18.80;99.90;19.20;100762.00;;;;5009815;27;104306;-65
2023/06/07 05:23:17;;;;;;;3.05;2.63;;;19.00;99.90;19.40;100761.00;;;;5005311;27;108892;-66
2023/06/07 05:25:46;;;;;;;3.28;2.97;;;19.20;99.90;19.60;100766.00;;;;5009077;27;93091;-65
2023/06/07 05:28:13;;;;;;;3.17;2.88;;;19.40;99.90;19.70;100762.00;;;;5002606;27;121657;-66
2023/06/07 05:30:39;;;;;;;3.15;2.65;;;19.50;99.90;19.90;100765.00;;;;5004208;27;115746;-66
2023/06/07 05:33:06;;;;;;;5.30;3.08;;;19.70;99.90;20.00;100771.00;;;;5004410;27;92941;-67
2023/06/07 05:35:32;;;;;;;3.03;2.80;;;19.80;99.90;20.10;100769.00;;;;4987797;27;107573;-67
2023/06/07 05:37:58;;;;;;;4.07;2.88;;;19.90;99.90;20.30;100768.00;;;;5004747;27;94308;-65
2023/06/07 05:40:24;;;;;;;4.10;2.35;;;20.10;99.90;20.40;100769.00;;;;5005535;27;115395;-65
2023/06/07 05:42:50;;;;;;;3.72;2.75;;;20.20;99.90;20.60;100768.00;;;;5003178;27;109605;-65
2023/06/07 05:45:16;;;;;;;2.30;1.95;;;20.40;99.90;20.70;100772.00;;;;5003145;27;93072;-66
2023/06/07 05:47:45;;;;;;;2.15;1.65;;;20.50;99.90;20.80;100773.00;;;;5005094;27;105245;-66
2023/06/07 05:50:11;;;;;;;2.58;2.22;;;20.70;99.90;21.00;100775.00;;;;5005308;27;93892;-65
2023/06/07 05:52:40;;;;;;;3.47;2.00;;;20.80;99.90;21.10;100774.00;;;;5006542;27;93108;-67
2023/06/07 05:55:07;;;;;;;2.72;2.38;;;20.90;99.90;21.20;100771.00;;;;5003169;27;92035;-66
2023/06/07 05:57:34;;;;;;;2.97;2.55;;;21.00;99.90;21.30;100779.00;;;;5003200;27;93523;-66
2023/06/07 06:00:00;;;;;;;2.05;1.85;;;21.20;99.90;21.40;100779.00;;;;5005469;27;93080;-66
2023/06/07 06:02:26;;;;;;;3.63;2.65;;;21.30;99.90;21.50;100772.00;;;;5001969;27;110912;-67
2023/06/07 06:04:52;;;;;;;2.65;2.35;;;21.40;99.90;21.70;100782.00;;;;5001544;27;92977;-66
2023/06/07 06:07:19;;;;;;;3.03;2.72;;;21.50;99.90;21.80;100786.00;;;;5007369;27;94157;-66
2023/06/07 06:09:45;;;;;;;2.53;1.83;;;21.60;99.90;21.90;100787.00;;;;5005728;27;93223;-66
2023/06/07 06:12:11;;;;;;;7.20;2.55;;;21.70;99.90;22.10;100787.00;;;;5006986;27;102739;-65
2023/06/07 06:14:38;;;;;;;2.40;2.20;;;21.80;99.90;22.20;100794.00;;;;5007050;27;93010;-65
2023/06/07 06:17:05;;;;;;;3.30;2.10;;;22.00;99.90;22.30;100797.00;;;;5007049;27;93675;-65
2023/06/07 06:19:31;;;;;;;2.70;2.25;;;22.10;99.90;22.50;100794.00;;;;5008950;27;92523;-65
2023/06/07 06:22:00;;;;;;;2.92;2.63;;;22.20;99.90;22.60;100784.00;;;;5005112;27;92973;-66
2023/06/07 06:24:25;;;;;;;2.30;2.08;;;22.40;99.70;22.80;100793.00;;;;5005983;27;108356;-65
2023/06/07 06:26:51;;;;;;;1.92;1.77;;;22.50;99.30;22.80;100808.00;;;;5005030;27;114508;-64
2023/06/07 06:29:17;;;;;;;2.05;1.80;;;22.70;97.50;22.90;100797.00;;;;5007005;27;101961;-64
2023/06/07 06:31:43;;;;;;;3.15;2.00;;;22.70;97.20;22.90;100798.00;;;;5006804;27;92967;-63
2023/06/07 06:34:09;;;;;;;2.67;2.47;;;22.70;96.80;22.90;100803.00;;;;5006747;27;92763;-66
2023/06/07 06:36:36;;;;;;;3.17;2.55;;;22.80;96.20;22.90;100802.00;;;;5007162;27;94081;-65
2023/06/07 06:39:03;;;;;;;2.95;2.65;;;22.70;95.00;22.80;100806.00;;;;5006590;27;93627;-66
2023/06/07 06:41:30;;;;;;;3.35;2.28;;;23.10;94.60;22.80;100797.00;;;;5007578;27;92731;-66
2023/06/07 06:43:57;;;;;;;3.20;2.70;;;22.60;94.50;22.80;100803.00;;;;5007083;27;92236;-66
2023/06/07 06:46:22;;;;;;;3.85;2.22;;;22.60;94.50;22.80;100802.00;;;;5008232;27;93302;-65
2023/06/07 06:48:48;;;;;;;3.80;2.83;;;22.60;94.40;22.90;100802.00;;;;5005500;27;122975;-64
2023/06/07 06:51:14;;;;;;;5.55;2.70;;;22.70;94.30;23.00;100800.00;;;;5005940;27;109950;-64
2023/06/07 06:53:39;;;;;;;2.65;1.83;;;22.80;93.90;23.10;100806.00;;;;5007285;27;108310;-65
2023/06/07 06:56:11;;;;;;;3.28;2.42;;;22.80;93.70;23.20;100812.00;;;;5009016;27;93489;-64
2023/06/07 06:58:38;;;;;;;3.50;2.42;;;22.90;93.40;23.30;100812.00;;;;5009928;27;121485;-65
2023/06/07 07:01:04;;;;;;;3.55;2.83;;;23.00;93.20;23.30;100818.00;;;;5009161;27;92801;-66
2023/06/07 07:03:30;;;;;;;2.72;2.17;;;23.10;92.80;23.40;100816.00;;;;4999355;27;92771;-65
2023/06/07 07:05:56;;;;;;;3.90;2.15;;;23.10;92.50;23.40;100817.00;;;;5003172;27;121689;-64
2023/06/07 07:08:22;;;;;;;2.83;2.25;;;23.20;92.30;23.50;100816.00;;;;5009796;27;97490;-65
2023/06/07 07:10:47;;;;;;;2.13;1.83;;;23.20;92.20;23.50;100804.00;;;;5007030;27;109934;-65
2023/06/07 07:13:14;;;;;;;3.20;2.53;;;23.30;91.40;23.60;100799.00;;;;5003452;27;93764;-66
2023/06/07 07:15:40;;;;;;;3.22;2.67;;;23.30;90.80;23.60;100808.00;;;;5004103;27;118924;-65
2023/06/07 07:18:07;;;;;;;7.93;2.10;;;23.30;90.40;23.60;100801.00;;;;5005270;27;123832;-66
2023/06/07 07:20:33;;;;;;;2.60;2.40;;;23.40;90.40;23.70;100804.00;;;;5006216;27;92761;-65
2023/06/07 07:23:01;;;;;;;3.40;2.63;;;23.40;89.60;23.80;100803.00;;;;5003407;27;109798;-66
2023/06/07 07:25:27;;;;;;;2.17;1.98;;;23.50;89.60;23.90;100805.00;;;;5004465;27;94437;-66
2023/06/07 07:27:54;;;;;;;2.92;2.72;;;23.60;90.10;24.00;100802.00;;;;5004736;27;121640;-66
2023/06/07 07:30:19;;;;;;;2.22;2.00;;;23.70;90.00;24.10;100802.00;;;;5005707;27;92721;-66
2023/06/07 07:32:45;;;;;;;2.83;1.90;;;23.80;89.10;24.10;100804.00;;;;5006640;27;108483;-66
2023/06/07 07:35:11;;;;;;;3.78;2.38;;;23.80;88.50;24.20;100809.00;;;;5004711;27;94048;-66
2023/06/07 07:37:38;;;;;;;4.32;2.40;;;23.90;88.10;24.20;100815.00;;;;5007973;27;122095;-67
2023/06/07 07:40:05;;;;;;;3.17;2.17;;;24.00;88.50;24.30;100808.00;;;;5004623;27;93755;-66
2023/06/07 07:42:31;;;;;;;3.17;2.17;;;24.00;89.00;24.40;100808.00;;;;5004660;27;92739;-66
2023/06/07 07:44:56;;;;;;;2.38;2.03;;;24.10;87.60;24.50;100820.00;;;;5004164;27;123403;-66
2023/06/07 07:47:22;;;;;;;4.32;2.10;;;24.20;87.00;24.60;100809.00;;;;5003989;27;102909;-66
2023/06/07 07:49:48;;;;;;;3.55;2.30;;;24.30;86.70;24.70;100820.00;;;;5005386;27;93099;-66
2023/06/07 07:52:13;;;;;;;2.92;2.22;;;24.40;86.50;24.80;100817.00;;;;5006669;27;94364;-66
2023/06/07 07:54:39;;;;;;;2.97;2.40;;;24.50;86.50;24.90;100822.00;;;;5006446;27;93603;-66
2023/06/07 07:57:06;;;;;;;2.45;2.25;;;24.60;86.20;25.00;100816.00;;;;5002992;27;114494;-66
2023/06/07 07:59:32;;;;;;;2.55;2.35;;;24.70;85.40;25.10;100810.00;;;;5004304;27;92692;-66
2023/06/07 08:01:57;;;;;;;3.08;2.70;;;24.80;84.70;25.30;100815.00;;;;5005229;27;92840;-66
2023/06/07 08:04:23;;;;;;;2.55;1.92;;;24.90;83.20;25.50;100815.00;;;;5001465;27;126386;-66
2023/06/07 08:06:48;;;;;;;4.15;3.00;;;25.10;80.10;25.60;100822.00;;;;5008048;27;122854;-67
2023/06/07 08:09:14;;;;;;;2.65;2.25;;;25.20;77.50;25.70;100814.00;;;;5003223;27;102002;-66
2023/06/07 08:11:40;;;;;;;2.28;2.08;;;25.40;76.70;25.80;100820.00;;;;5007858;27;108247;-65
2023/06/07 08:14:06;;;;;;;3.60;2.50;;;25.50;76.90;26.00;100816.00;;;;5004222;27;92960;-65
2023/06/07 08:16:31;;;;;;;5.18;2.10;;;25.60;77.30;26.20;100821.00;;;;5004224;27;123624;-65
2023/06/07 08:18:58;;;;;;;1.88;1.70;;;25.80;77.90;26.40;100828.00;;;;5002428;27;110108;-65
2023/06/07 08:21:25;;;;;;;3.25;2.38;;;26.00;77.30;26.50;100823.00;;;;5006313;27;92463;-65
2023/06/07 08:23:56;;;;;;;2.67;2.47;;;26.10;76.40;26.70;100826.00;;;;5003161;27;93947;-66
2023/06/07 08:26:22;;;;;;;1.77;1.67;;;26.30;75.20;26.90;100823.00;;;;5005654;27;93649;-66
2023/06/07 08:28:48;;;;;;;2.20;1.98;;;26.50;74.90;27.20;100825.00;;;;5005954;27;93987;-65
2023/06/07 08:31:14;;;;;;;4.35;2.45;;;26.80;74.00;27.40;100835.00;;;;5010842;27;108539;-66
2023/06/07 08:33:40;;;;;;;2.58;1.77;;;26.90;73.50;27.60;100826.00;;;;5002762;27;123661;-66
2023/06/07 08:36:05;;;;;;;5.57;2.60;;;27.20;71.90;27.80;100829.00;;;;5001372;27;92785;-66
2023/06/07 08:38:31;;;;;;;2.88;1.98;;;27.30;71.00;27.90;100823.00;;;;5003856;27;108472;-66
2023/06/07 08:40:58;;;;;;;2.42;2.17;;;27.50;70.00;28.10;100828.00;;;;5003830;27;106654;-65
2023/06/07 08:43:25;;;;;;;3.17;2.03;;;27.70;68.90;28.20;100832.00;;;;5006950;27;93999;-65
2023/06/07 08:45:51;;;;;;;4.68;2.08;;;27.80;67.50;28.30;100829.00;;;;5007869;27;94200;-65
2023/06/07 08:48:17;;;;;;;2.17;1.83;;;28.00;66.50;28.30;100831.00;;;;5005572;27;101163;-66
2023/06/07 08:50:51;;;;;;;2.88;2.35;;;28.00;63.20;28.40;100835.00;;;;5009784;27;92840;-66
2023/06/07 08:53:28;;;;;;;4.30;1.80;;;28.00;61.80;28.30;100834.00;;;;4993207;27;124167;-65
2023/06/07 08:56:03;;;;;;;2.15;1.63;;;28.00;59.60;28.30;100839.00;;;;4994150;27;94583;-65
2023/06/07 08:58:28;;;;;;;2.85;2.20;;;28.00;58.60;28.20;100843.00;;;;5002850;27;94092;-65
2023/06/07 09:00:58;;;;;;;2.88;2.55;;;27.90;57.80;28.20;100838.00;;;;5005352;27;108957;-67
2023/06/07 09:03:25;;;;;;;3.35;2.58;;;27.90;57.70;28.20;100839.00;;;;4975710;27;93404;-66
2023/06/07 09:05:57;;;;;;;2.67;2.47;;;27.90;58.10;28.20;100836.00;;;;4988343;27;93571;-66
2023/06/07 09:08:22;;;;;;;3.92;2.63;;;27.80;55.10;28.10;100845.00;;;;5003942;27;92769;-67
2023/06/07 09:10:48;;;;;;;1.90;1.48;;;27.80;56.30;28.10;100834.00;;;;5002916;27;106819;-70
2023/06/07 09:13:20;;;;;;;2.10;1.77;;;27.70;56.30;28.10;100835.00;;;;5000611;27;123083;-70
2023/06/07 09:15:49;;;;;;;4.82;2.72;;;27.70;54.70;28.00;100836.00;;;;5006344;27;93907;-70
2023/06/07 09:18:15;;;;;;;2.90;2.53;;;27.70;54.20;28.00;100837.00;;;;5006417;27;93842;-70
2023/06/07 09:20:40;;;;;;;2.10;1.90;;;27.60;53.80;27.90;100833.00;;;;5008360;27;108267;-70
2023/06/07 09:23:14;;;;;;;3.05;2.53;;;27.60;53.80;28.00;100833.00;;;;5000021;27;94036;-71
2023/06/07 09:25:46;;;;;;;3.05;2.72;;;27.60;53.00;28.10;100827.00;;;;5004547;27;92926;-70
2023/06/07 09:28:14;;;;;;;2.20;2.00;;;27.70;51.50;28.20;100832.00;;;;5005686;27;93424;-71
2023/06/07 09:30:56;;;;;;;3.90;2.45;;;27.80;50.70;28.40;100839.00;;;;5005039;27;92997;-70
2023/06/07 09:33:28;;;;;;;2.10;1.90;;;27.90;50.40;28.60;100838.00;;;;5000883;27;92978;-70
2023/06/07 09:36:12;;;;;;;4.40;2.05;;;28.10;51.30;28.90;100846.00;;;;5004877;27;93950;-71
2023/06/07 09:38:38;;;;;;;2.53;2.33;;;28.40;51.50;29.20;100832.00;;;;4995222;27;92995;-71
2023/06/07 09:41:06;;;;;;;2.22;2.00;;;28.70;50.70;29.40;100828.00;;;;4994840;27;93253;-71
2023/06/07 09:43:54;;;;;;;2.67;1.95;;;28.90;50.70;29.60;100830.00;;;;5007860;27;93977;-71
2023/06/07 09:46:20;;;;;;;2.60;2.40;;;29.10;50.10;29.90;100833.00;;;;5007429;27;93864;-70
2023/06/07 09:48:51;;;;;;;3.50;2.67;;;29.30;48.90;29.90;100844.00;;;;5008873;27;92729;-71
2023/06/07 09:51:18;;;;;;;3.22;2.20;;;29.50;46.30;29.80;100833.00;;;;4998827;27;93023;-71
2023/06/07 09:54:01;;;;;;;3.45;2.25;;;29.30;45.70;29.60;100836.00;;;;5009090;27;93063;-71
2023/06/07 09:56:27;;;;;;;4.93;2.50;;;29.20;46.30;29.60;100845.00;;;;5010274;27;92907;-70
2023/06/07 09:59:13;;;;;;;3.35;2.15;;;29.20;47.20;29.70;100834.00;;;;5006057;27;92874;-71
2023/06/07 10:01:47;;;;;;;4.47;2.58;;;29.20;45.10;29.70;100833.00;;;;4978906;27;92177;-71
2023/06/07 10:04:13;;;;;;;1.90;1.75;;;29.20;45.40;29.80;100833.00;;;;4996169;27;92842;-71
2023/06/07 10:06:44;;;;;;;2.67;2.47;;;29.30;45.60;29.80;100836.00;;;;5007345;27;92985;-70
2023/06/07 10:09:11;;;;;;;2.65;2.08;;;29.30;45.00;29.80;100832.00;;;;4983206;27;95973;-71
2023/06/07 10:11:41;;;;;;;2.50;2.10;;;29.30;45.60;30.00;100832.00;;;;5011935;27;92974;-71
2023/06/07 10:14:13;;;;;;;2.65;2.45;;;29.50;46.80;30.30;100837.00;;;;4996932;27;114352;-71
2023/06/07 10:16:52;;;;;;;2.67;2.38;;;29.70;45.50;30.60;100836.00;;;;4988211;27;93800;-71
2023/06/07 10:19:27;;;;;;;2.80;2.00;;;29.90;46.30;31.00;100832.00;;;;4993982;27;95573;-71
2023/06/07 10:21:55;;;;;;;3.53;2.80;;;30.30;46.60;31.40;100830.00;;;;5003175;27;93630;-71
2023/06/07 10:24:32;;;;;;;4.90;2.55;;;30.70;46.80;31.70;100828.00;;;;5006783;27;93704;-71
2023/06/07 10:27:08;;;;;;;3.42;3.05;;;31.00;45.00;31.80;100825.00;;;;4996111;27;94481;-71
2023/06/07 10:30:01;;;;;;;3.22;2.83;;;31.20;46.20;32.00;100829.00;;;;4995019;27;93263;-71
2023/06/07 10:32:34;;;;;;;3.58;2.55;;;31.30;44.40;31.90;100825.00;;;;4995354;27;93050;-71
2023/06/07 10:35:00;;;;;;;3.22;2.67;;;31.30;43.60;31.80;100825.00;;;;5007657;27;94824;-70
2023/06/07 10:37:30;;;;;;;3.33;2.22;;;31.20;43.90;31.90;100826.00;;;;5011428;27;93717;-70
2023/06/07 10:39:58;;;;;;;5.25;3.05;;;31.20;44.20;32.00;100820.00;;;;4989099;27;93023;-70
2023/06/07 10:42:24;;;;;;;3.15;2.20;;;31.40;43.40;32.20;100816.00;;;;5007393;27;93227;-71
2023/06/07 10:44:50;;;;;;;2.38;2.17;;;31.50;44.10;32.60;100830.00;;;;5007482;27;94076;-71
2023/06/07 10:47:22;;;;;;;3.38;2.35;;;31.80;44.40;32.90;100820.00;;;;4993853;27;120947;-71